Flying Cat 3 — SX6671 — position and weather

sailwx.info

Track history (hours):
 
Tides and Currents Weather Stations Pressure Air Temp Water Temp Dewpoint Dewpoint Depression Visibility Wind Speed Wind Dir Waves Ship Positions

Flying Cat 3

Last reported at 2014-Jul-23 22:22 UTC. Time now 2014-Jul-23 23:43 UTC.
Position N 37°57' E 023°38'.

Length 48 m; draft 1.5 m.

Type: High speed craft. MMSI: 239552000.

Date/timePositionNaut miles runAvg speedWind from/ knotsBaromVisibWave heightAir tempDewpointWater temp
2014-Jul-23 22:22N 37°57' E 023°38'5730.0
2014-Jul-23 20:28N 37°19' E 024°33'2322.8
2014-Jul-23 19:27N 36°56' E 024°34'2010.5
2014-Jul-23 17:34N 36°41' E 024°50'19 8.1
2014-Jul-23 15:15N 36°53' E 024°32'7728.5
2014-Jul-23 12:34N 37°57' E 023°38'0 0.2
2014-Jul-23 11:33N 37°57' E 023°38'0 0.0
2014-Jul-22 22:10N 37°57' E 023°38'7527.8
2014-Jul-22 19:28N 36°56' E 024°35'2110.9
2014-Jul-22 17:33N 36°41' E 024°52'9619.2
2014-Jul-22 12:34N 37°57' E 023°38'0 0.1
2014-Jul-22 11:34N 37°57' E 023°38'8 0.6
2014-Jul-21 21:33N 37°49' E 023°40'6931.7
2014-Jul-21 19:23N 36°54' E 024°32'2010.9
2014-Jul-21 17:33N 36°41' E 024°51'1211.7
2014-Jul-21 16:32N 36°44' E 024°37'9 7.2
2014-Jul-21 15:14N 36°52' E 024°30'7728.6
2014-Jul-21 12:34N 37°57' E 023°38'0 0.3
2014-Jul-21 11:34N 37°57' E 023°38'76 4.7
2014-Jul-20 19:29N 36°55' E 024°33'2713.9
2014-Jul-20 17:33N 36°35' E 024°56'2611.5
2014-Jul-20 15:15N 36°53' E 024°31'2 0.1
2014-Jul-19 19:22N 36°55' E 024°32'2111.8
2014-Jul-19 17:33N 36°40' E 024°52'21 9.0
2014-Jul-19 15:15N 36°52' E 024°30'7728.4
2014-Jul-19 12:34N 37°56' E 023°38'0 0.3
2014-Jul-19 11:33N 37°57' E 023°38'0 0.0
2014-Jul-19 10:33N 37°57' E 023°38'6 0.5
2014-Jul-18 21:33N 37°50' E 023°40'7032.7
2014-Jul-18 19:26N 36°56' E 024°35'2612.6
2014-Jul-18 17:20N 36°37' E 024°57'2612.7
2014-Jul-18 15:19N 36°53' E 024°32'6128.5
2014-Jul-18 13:09N 37°40' E 023°42'1728.0
2014-Jul-18 12:33N 37°57' E 023°38'0 0.1
2014-Jul-18 11:33N 37°57' E 023°38'7 0.5
2014-Jul-17 21:33N 37°50' E 023°40'9523.7
2014-Jul-17 17:32N 36°38' E 024°58'9221.2
2014-Jul-17 13:13N 37°45' E 023°39'1217.9
2014-Jul-17 12:33N 37°57' E 023°38'0 0.2
2014-Jul-17 11:33N 37°57' E 023°38'0 0.0
2014-Jul-16 22:14N 37°57' E 023°38'1116.3
2014-Jul-16 21:33N 37°46' E 023°42'8721.5
2014-Jul-16 17:30N 36°40' E 024°53'9719.6
2014-Jul-16 12:34N 37°57' E 023°38'0 0.1
2014-Jul-16 11:33N 37°57' E 023°38'0 0.0
2014-Jul-16 10:33N 37°57' E 023°38'0 0.0
2014-Jul-15 22:06N 37°57' E 023°38'814.5
2014-Jul-15 21:34N 37°49' E 023°40'6931.4
2014-Jul-15 19:21N 36°53' E 024°31'2011.1
2014-Jul-15 17:34N 36°41' E 024°51'9519.1
2014-Jul-15 12:33N 37°56' E 023°38'0 0.4
2014-Jul-15 11:34N 37°57' E 023°38'0 0.0
2014-Jul-14 22:08N 37°57' E 023°38'916.2
2014-Jul-14 21:34N 37°48' E 023°41'6731.9
2014-Jul-14 19:28N 36°56' E 024°34'2111.2
2014-Jul-14 17:34N 36°40' E 024°52'9619.2
2014-Jul-14 12:33N 37°56' E 023°38'0 0.3
2014-Jul-14 11:31N 37°57' E 023°38'  
Track history (hours):
 
Tides and Currents Weather Stations Pressure Air Temp Water Temp Dewpoint Dewpoint Depression Visibility Wind Speed Wind Dir Waves Ship Positions

Flying Cat 3

Last reported at 2014-Jul-23 22:22 UTC. Time now 2014-Jul-23 23:43 UTC.
Position N 37°57' E 023°38'.

Length 48 m; draft 1.5 m.

Type: High speed craft. MMSI: 239552000.

Date/timePositionNaut miles runAvg speedWind from/ knotsBaromVisibWave heightAir tempDewpointWater temp
2014-Jul-23 22:22N 37°57' E 023°38'5730.0
2014-Jul-23 20:28N 37°19' E 024°33'2322.8
2014-Jul-23 19:27N 36°56' E 024°34'2010.5
2014-Jul-23 17:34N 36°41' E 024°50'19 8.1
2014-Jul-23 15:15N 36°53' E 024°32'7728.5
2014-Jul-23 12:34N 37°57' E 023°38'0 0.2
2014-Jul-23 11:33N 37°57' E 023°38'0 0.0
2014-Jul-22 22:10N 37°57' E 023°38'7527.8
2014-Jul-22 19:28N 36°56' E 024°35'2110.9
2014-Jul-22 17:33N 36°41' E 024°52'9619.2
2014-Jul-22 12:34N 37°57' E 023°38'0 0.1
2014-Jul-22 11:34N 37°57' E 023°38'8 0.6
2014-Jul-21 21:33N 37°49' E 023°40'6931.7
2014-Jul-21 19:23N 36°54' E 024°32'2010.9
2014-Jul-21 17:33N 36°41' E 024°51'1211.7
2014-Jul-21 16:32N 36°44' E 024°37'9 7.2
2014-Jul-21 15:14N 36°52' E 024°30'7728.6
2014-Jul-21 12:34N 37°57' E 023°38'0 0.3
2014-Jul-21 11:34N 37°57' E 023°38'76 4.7
2014-Jul-20 19:29N 36°55' E 024°33'2713.9
2014-Jul-20 17:33N 36°35' E 024°56'2611.5
2014-Jul-20 15:15N 36°53' E 024°31'2 0.1
2014-Jul-19 19:22N 36°55' E 024°32'2111.8
2014-Jul-19 17:33N 36°40' E 024°52'21 9.0
2014-Jul-19 15:15N 36°52' E 024°30'7728.4
2014-Jul-19 12:34N 37°56' E 023°38'0 0.3
2014-Jul-19 11:33N 37°57' E 023°38'0 0.0
2014-Jul-19 10:33N 37°57' E 023°38'6 0.5
2014-Jul-18 21:33N 37°50' E 023°40'7032.7
2014-Jul-18 19:26N 36°56' E 024°35'2612.6
2014-Jul-18 17:20N 36°37' E 024°57'2612.7
2014-Jul-18 15:19N 36°53' E 024°32'6128.5
2014-Jul-18 13:09N 37°40' E 023°42'1728.0
2014-Jul-18 12:33N 37°57' E 023°38'0 0.1
2014-Jul-18 11:33N 37°57' E 023°38'7 0.5
2014-Jul-17 21:33N 37°50' E 023°40'9523.7
2014-Jul-17 17:32N 36°38' E 024°58'9221.2
2014-Jul-17 13:13N 37°45' E 023°39'1217.9
2014-Jul-17 12:33N 37°57' E 023°38'0 0.2
2014-Jul-17 11:33N 37°57' E 023°38'0 0.0
2014-Jul-16 22:14N 37°57' E 023°38'1116.3
2014-Jul-16 21:33N 37°46' E 023°42'8721.5
2014-Jul-16 17:30N 36°40' E 024°53'9719.6
2014-Jul-16 12:34N 37°57' E 023°38'0 0.1
2014-Jul-16 11:33N 37°57' E 023°38'0 0.0
2014-Jul-16 10:33N 37°57' E 023°38'0 0.0
2014-Jul-15 22:06N 37°57' E 023°38'814.5
2014-Jul-15 21:34N 37°49' E 023°40'6931.4
2014-Jul-15 19:21N 36°53' E 024°31'2011.1
2014-Jul-15 17:34N 36°41' E 024°51'9519.1
2014-Jul-15 12:33N 37°56' E 023°38'0 0.4
2014-Jul-15 11:34N 37°57' E 023°38'0 0.0
2014-Jul-14 22:08N 37°57' E 023°38'916.2
2014-Jul-14 21:34N 37°48' E 023°41'6731.9
2014-Jul-14 19:28N 36°56' E 024°34'2111.2
2014-Jul-14 17:34N 36°40' E 024°52'9619.2
2014-Jul-14 12:33N 37°56' E 023°38'0 0.3
2014-Jul-14 11:31N 37°57' E 023°38'  

Dump ship's entire track history